Time;durP1;ratioP1;P1;durP2;ratioP2;P2;SDS_P1;SDS_P2;PMS_P1;PMS_P2;Temp;Humidity;BMP_temperature;BMP_pressure;BME280_temperature;BME280_humidity;BME280_pressure;Samples;Min_cycle;Max_cycle;Signal;HPM_P1;HPM_P2
2022/06/24 00:01:15;;;;;;;5.65;2.85;;;23.80;69.60;;;;;;5073926;28;20064;-66
2022/06/24 00:03:45;;;;;;;3.40;2.95;;;23.80;70.00;;;;;;5073524;28;20029;-67
2022/06/24 00:06:17;;;;;;;5.15;2.92;;;23.70;70.20;;;;;;5093864;28;20036;-67
2022/06/24 00:08:58;;;;;;;4.47;3.20;;;23.70;70.40;;;;;;5059549;28;20039;-67
2022/06/24 00:11:26;;;;;;;3.55;3.17;;;23.70;70.30;;;;;;5093835;28;20035;-67
2022/06/24 00:14:02;;;;;;;3.75;2.60;;;23.60;70.60;;;;;;5093989;28;20050;-67
2022/06/24 00:16:28;;;;;;;4.30;2.85;;;23.60;70.70;;;;;;5093530;28;20051;-67
2022/06/24 00:19:12;;;;;;;5.32;3.47;;;23.60;71.20;;;;;;5093600;28;20432;-67
2022/06/24 00:21:38;;;;;;;5.07;3.35;;;23.60;71.30;;;;;;5093531;28;20149;-67
2022/06/24 00:24:04;;;;;;;3.00;2.70;;;23.50;71.10;;;;;;5093787;28;20495;-66
2022/06/24 00:26:40;;;;;;;3.28;2.95;;;23.50;71.50;;;;;;5093456;28;20050;-66
2022/06/24 00:29:06;;;;;;;3.28;2.95;;;23.50;71.80;;;;;;5093683;28;20032;-67
2022/06/24 00:31:31;;;;;;;4.22;3.08;;;23.40;72.00;;;;;;5093104;28;20039;-66
2022/06/24 00:33:57;;;;;;;3.13;2.80;;;23.30;72.60;;;;;;5093659;28;20028;-66
2022/06/24 00:36:23;;;;;;;4.15;2.90;;;23.30;72.20;;;;;;5093508;28;20028;-68
2022/06/24 00:38:52;;;;;;;4.22;3.30;;;23.30;72.40;;;;;;5092856;28;20028;-66
2022/06/24 00:41:24;;;;;;;3.65;2.70;;;23.30;72.50;;;;;;5093538;28;20042;-67
2022/06/24 00:43:55;;;;;;;4.60;2.70;;;23.20;72.90;;;;;;5093189;28;20032;-67
2022/06/24 00:46:23;;;;;;;3.22;2.80;;;23.20;73.10;;;;;;5093540;28;20055;-67
2022/06/24 00:48:50;;;;;;;5.05;2.78;;;23.20;73.30;;;;;;5092697;28;20214;-67
2022/06/24 00:51:17;;;;;;;3.22;2.83;;;23.20;73.60;;;;;;5093473;28;20028;-66
2022/06/24 00:53:47;;;;;;;3.75;2.90;;;23.10;73.20;;;;;;5092886;28;20028;-66
2022/06/24 00:56:16;;;;;;;4.20;3.10;;;23.10;73.60;;;;;;5093377;28;20460;-64
2022/06/24 00:58:56;;;;;;;3.95;3.10;;;23.10;73.60;;;;;;5092574;28;20444;-66
2022/06/24 01:01:30;;;;;;;3.05;2.55;;;23.10;73.40;;;;;;5093202;28;20073;-67
2022/06/24 01:03:57;;;;;;;3.10;2.65;;;23.10;73.50;;;;;;5093198;28;20089;-66
2022/06/24 01:06:24;;;;;;;3.80;2.75;;;23.00;73.90;;;;;;5093161;28;20069;-66
2022/06/24 01:08:49;;;;;;;5.18;2.67;;;23.00;74.10;;;;;;5092708;28;20028;-66
2022/06/24 01:11:23;;;;;;;3.03;2.72;;;22.90;74.40;;;;;;5093150;28;20028;-66
2022/06/24 01:13:49;;;;;;;4.95;3.45;;;22.90;74.80;;;;;;5092631;28;20324;-66
2022/06/24 01:16:15;;;;;;;3.50;2.80;;;22.80;75.10;;;;;;5092868;28;20028;-66
2022/06/24 01:18:41;;;;;;;3.33;2.72;;;22.80;75.50;;;;;;5092258;28;20040;-66
2022/06/24 01:21:06;;;;;;;2.90;2.58;;;22.80;75.70;;;;;;5092939;28;20376;-67
2022/06/24 01:23:32;;;;;;;4.78;2.83;;;22.80;75.30;;;;;;5092473;28;20028;-66
2022/06/24 01:25:57;;;;;;;3.00;2.70;;;22.80;75.70;;;;;;5092841;28;20066;-66
2022/06/24 01:28:23;;;;;;;4.43;3.08;;;22.80;76.00;;;;;;5093112;28;20051;-66
2022/06/24 01:30:49;;;;;;;3.88;3.05;;;22.90;75.60;;;;;;5092409;28;20060;-66
2022/06/24 01:33:14;;;;;;;3.22;2.92;;;22.80;75.70;;;;;;5093005;28;20035;-66
2022/06/24 01:35:40;;;;;;;3.38;2.95;;;22.80;76.20;;;;;;5092154;28;20028;-65
2022/06/24 01:38:06;;;;;;;3.30;3.00;;;22.80;76.00;;;;;;5092695;28;20024;-67
2022/06/24 01:40:31;;;;;;;2.72;2.50;;;22.80;75.60;;;;;;5092293;28;20068;-66
2022/06/24 01:42:59;;;;;;;3.28;2.97;;;22.70;75.80;;;;;;5092678;28;20050;-66
2022/06/24 01:45:25;;;;;;;3.45;2.83;;;22.60;76.70;;;;;;5092267;28;20555;-66
2022/06/24 01:47:50;;;;;;;3.75;3.13;;;22.60;76.70;;;;;;5092088;28;20059;-67
2022/06/24 01:50:16;;;;;;;6.00;2.50;;;22.50;77.20;;;;;;5092546;28;20031;-67
2022/06/24 01:52:42;;;;;;;5.32;3.35;;;22.40;76.90;;;;;;5092057;28;20024;-68
2022/06/24 01:55:08;;;;;;;4.82;2.72;;;22.30;77.50;;;;;;5086847;28;20025;-66
2022/06/24 01:57:33;;;;;;;2.95;2.65;;;22.20;77.60;;;;;;5071726;28;20035;-66
2022/06/24 02:00:00;;;;;;;2.63;2.40;;;22.20;78.30;;;;;;5072452;28;20035;-66
2022/06/24 02:02:26;;;;;;;3.05;2.75;;;22.10;78.60;;;;;;5072093;28;20472;-66
2022/06/24 02:04:54;;;;;;;3.75;2.63;;;22.00;79.10;;;;;;5071823;28;20205;-66
2022/06/24 02:07:20;;;;;;;3.00;2.70;;;22.00;78.90;;;;;;5072138;28;20039;-67
2022/06/24 02:15:15;;;;;;;3.22;2.92;;;21.90;79.40;;;;;;5092473;28;20058;-67
2022/06/24 02:17:41;;;;;;;4.78;2.83;;;21.80;80.00;;;;;;5091887;28;20115;-66
2022/06/24 02:20:07;;;;;;;3.38;2.88;;;21.80;80.20;;;;;;5092440;28;20436;-66
2022/06/24 02:22:33;;;;;;;3.38;2.78;;;21.80;81.50;;;;;;5092289;28;20032;-66
2022/06/24 02:24:58;;;;;;;4.88;3.00;;;21.70;83.70;;;;;;5092358;28;20070;-66
2022/06/24 02:27:25;;;;;;;6.78;3.08;;;21.70;85.00;;;;;;5092019;28;20388;-66
2022/06/24 02:29:51;;;;;;;3.40;2.92;;;21.70;86.50;;;;;;5091778;28;20050;-67
2022/06/24 02:32:17;;;;;;;3.95;2.95;;;21.60;87.60;;;;;;5095052;28;20520;-66
2022/06/24 02:34:42;;;;;;;3.25;2.95;;;21.60;88.60;;;;;;5095580;28;20107;-66
2022/06/24 02:37:08;;;;;;;3.22;2.90;;;21.60;89.30;;;;;;5095866;28;20028;-66
2022/06/24 02:39:34;;;;;;;4.15;3.03;;;21.50;90.40;;;;;;5095891;28;20055;-67
2022/06/24 02:41:59;;;;;;;5.88;2.97;;;21.40;90.80;;;;;;5095773;28;20040;-66
2022/06/24 02:44:25;;;;;;;3.83;2.83;;;21.40;90.70;;;;;;5095544;28;20451;-67
2022/06/24 02:46:50;;;;;;;3.75;2.95;;;21.40;91.00;;;;;;5095614;28;20130;-66
2022/06/24 02:49:35;;;;;;;3.92;3.20;;;21.30;91.10;;;;;;5095450;28;20073;-67
2022/06/24 02:52:00;;;;;;;3.40;2.80;;;21.30;91.20;;;;;;5095284;28;20024;-66
2022/06/24 02:54:26;;;;;;;4.40;3.53;;;21.20;91.50;;;;;;5095569;28;20020;-66
2022/06/24 02:56:52;;;;;;;5.63;3.03;;;21.20;91.60;;;;;;5095069;28;20028;-66
2022/06/24 02:59:17;;;;;;;5.60;3.42;;;21.20;91.90;;;;;;5095147;28;20116;-67
2022/06/24 03:01:43;;;;;;;6.20;3.45;;;21.20;92.10;;;;;;5094986;28;20154;-66
2022/06/24 03:04:08;;;;;;;4.07;2.83;;;21.10;92.10;;;;;;5095288;28;20449;-66
2022/06/24 03:06:34;;;;;;;4.47;3.20;;;21.10;92.60;;;;;;5095013;28;20484;-67
2022/06/24 03:09:00;;;;;;;4.15;3.08;;;21.10;92.60;;;;;;5094955;28;20024;-67
2022/06/24 03:11:25;;;;;;;4.32;3.42;;;21.10;92.50;;;;;;5076714;28;20107;-67
2022/06/24 03:13:51;;;;;;;3.97;2.70;;;21.10;92.60;;;;;;5094754;28;20055;-66
2022/06/24 03:16:17;;;;;;;4.18;2.90;;;21.10;92.60;;;;;;5094788;28;20035;-67
2022/06/24 03:18:42;;;;;;;4.32;3.28;;;21.10;92.80;;;;;;5094810;28;20393;-66
2022/06/24 03:21:08;;;;;;;5.10;3.20;;;21.20;93.30;;;;;;5095166;28;20097;-68
2022/06/24 03:23:34;;;;;;;6.45;3.17;;;21.20;93.10;;;;;;5094598;28;20024;-66
2022/06/24 03:26:02;;;;;;;4.15;3.13;;;21.10;93.40;;;;;;5094229;28;20047;-66
2022/06/24 03:28:27;;;;;;;4.63;3.47;;;21.10;93.50;;;;;;5094874;28;20024;-67
2022/06/24 03:30:53;;;;;;;4.68;3.30;;;21.10;93.50;;;;;;5094365;28;20421;-66
2022/06/24 03:33:19;;;;;;;6.05;3.08;;;21.10;93.80;;;;;;5094486;28;20032;-67
2022/06/24 03:35:44;;;;;;;3.60;2.90;;;21.10;94.20;;;;;;5093973;28;20061;-66
2022/06/24 03:38:10;;;;;;;3.70;3.33;;;21.00;94.20;;;;;;5094422;28;20073;-67
2022/06/24 03:40:35;;;;;;;3.97;3.42;;;21.00;94.80;;;;;;5094882;28;20044;-67
2022/06/24 03:43:01;;;;;;;4.03;2.92;;;21.00;95.10;;;;;;5093212;28;20028;-66
2022/06/24 03:45:27;;;;;;;5.25;3.22;;;21.00;95.40;;;;;;5094287;28;20090;-67
2022/06/24 03:47:52;;;;;;;4.70;3.35;;;21.10;95.10;;;;;;5091771;28;20459;-66
2022/06/24 03:50:18;;;;;;;3.80;2.97;;;21.10;95.10;;;;;;5094050;28;20441;-66
2022/06/24 03:52:43;;;;;;;5.20;3.40;;;21.10;95.10;;;;;;5093528;28;20074;-66
2022/06/24 03:55:09;;;;;;;4.32;3.20;;;21.20;95.20;;;;;;5075563;28;20034;-66
2022/06/24 03:57:36;;;;;;;4.68;3.70;;;21.30;94.70;;;;;;5093840;28;20024;-67
2022/06/24 04:00:03;;;;;;;4.63;3.75;;;21.30;94.60;;;;;;5093203;28;20034;-66
2022/06/24 04:02:28;;;;;;;4.40;3.33;;;21.20;94.60;;;;;;5093467;28;20087;-66
2022/06/24 04:04:54;;;;;;;4.00;3.45;;;21.30;94.80;;;;;;5088099;28;20505;-65
2022/06/24 04:07:19;;;;;;;5.03;3.13;;;21.40;94.70;;;;;;5094121;28;20475;-66
2022/06/24 04:09:45;;;;;;;3.67;3.25;;;21.50;94.20;;;;;;5093102;28;20093;-66
2022/06/24 04:12:11;;;;;;;4.32;3.50;;;21.50;94.10;;;;;;5093308;28;20027;-66
2022/06/24 04:17:21;;;;;;;4.43;3.55;;;21.70;93.40;;;;;;5093240;28;20074;-66
2022/06/24 04:19:46;;;;;;;5.05;3.72;;;21.80;93.10;;;;;;5093152;28;20033;-66
2022/06/24 04:22:12;;;;;;;5.57;3.40;;;21.90;92.50;;;;;;5093294;28;20016;-66
2022/06/24 04:24:38;;;;;;;4.47;3.50;;;21.90;92.70;;;;;;5087504;28;20044;-66
2022/06/24 04:27:04;;;;;;;4.30;3.47;;;22.00;92.40;;;;;;5074950;28;20463;-65
2022/06/24 04:29:29;;;;;;;4.55;3.83;;;22.00;92.20;;;;;;5093255;28;20031;-66
2022/06/24 04:31:55;;;;;;;5.28;3.58;;;22.00;92.20;;;;;;5087578;28;20039;-66
2022/06/24 04:34:20;;;;;;;4.95;3.28;;;22.20;92.20;;;;;;5073240;28;20029;-67
2022/06/24 04:36:46;;;;;;;3.70;3.30;;;22.30;91.90;;;;;;5072495;28;20430;-66
2022/06/24 04:39:12;;;;;;;5.18;3.40;;;22.50;91.20;;;;;;5072454;28;20103;-66
2022/06/24 04:41:37;;;;;;;5.53;3.00;;;22.60;91.00;;;;;;5088415;28;20115;-66
2022/06/24 04:44:03;;;;;;;3.80;3.13;;;22.60;91.10;;;;;;5092814;28;20429;-66
2022/06/24 04:46:29;;;;;;;7.18;3.78;;;22.60;91.00;;;;;;5092648;28;20056;-66
2022/06/24 04:48:54;;;;;;;4.40;3.28;;;22.60;90.60;;;;;;5092358;28;20028;-66
2022/06/24 04:51:20;;;;;;;6.43;3.25;;;22.60;90.70;;;;;;5092879;28;20032;-66
2022/06/24 04:53:46;;;;;;;5.07;3.58;;;22.70;90.50;;;;;;5091991;28;20032;-67
2022/06/24 04:56:11;;;;;;;9.18;3.47;;;22.70;90.40;;;;;;5092635;28;20059;-66
2022/06/24 04:58:37;;;;;;;3.60;3.22;;;22.70;90.00;;;;;;5077884;28;20501;-66
2022/06/24 05:01:02;;;;;;;4.03;3.53;;;22.80;89.60;;;;;;5071776;28;20078;-67
2022/06/24 05:03:28;;;;;;;4.40;3.05;;;22.80;89.20;;;;;;5072254;28;20073;-67
2022/06/24 05:05:54;;;;;;;4.22;2.75;;;22.90;89.40;;;;;;5071874;28;20044;-67
2022/06/24 05:08:19;;;;;;;3.63;3.22;;;23.00;88.80;;;;;;5072388;28;20025;-66
2022/06/24 05:10:45;;;;;;;6.10;3.28;;;23.10;87.60;;;;;;5072280;28;20047;-67
2022/06/24 05:13:10;;;;;;;3.30;2.72;;;23.20;87.00;;;;;;5071665;28;20079;-66
2022/06/24 05:15:36;;;;;;;4.93;3.30;;;23.30;87.00;;;;;;5072102;28;20372;-66
2022/06/24 05:18:03;;;;;;;7.10;3.20;;;23.40;85.60;;;;;;5071740;28;20040;-66
2022/06/24 05:20:29;;;;;;;3.60;3.30;;;23.50;85.10;;;;;;5072076;28;20046;-67
2022/06/24 05:22:54;;;;;;;5.63;3.17;;;23.60;84.60;;;;;;5091040;28;20020;-66
2022/06/24 05:25:20;;;;;;;4.35;3.05;;;23.70;83.20;;;;;;5092156;28;20321;-66
2022/06/24 05:27:47;;;;;;;3.05;2.75;;;23.90;82.60;;;;;;5092010;28;20038;-67
2022/06/24 05:30:31;;;;;;;2.90;2.58;;;24.00;81.70;;;;;;5092089;28;20070;-67
2022/06/24 05:32:57;;;;;;;3.85;2.55;;;24.10;81.30;;;;;;5075142;28;20029;-65
2022/06/24 05:35:22;;;;;;;3.53;2.88;;;24.30;79.80;;;;;;5072237;28;20097;-67
2022/06/24 05:37:48;;;;;;;5.15;3.03;;;24.50;78.20;;;;;;5071872;28;20028;-66
2022/06/24 05:40:14;;;;;;;2.97;2.60;;;24.60;77.70;;;;;;5071723;28;20037;-67
2022/06/24 05:42:39;;;;;;;3.20;2.75;;;24.80;76.50;;;;;;5071747;28;20491;-67
2022/06/24 05:45:05;;;;;;;7.47;2.63;;;25.00;74.30;;;;;;5071037;28;20099;-66
2022/06/24 05:47:34;;;;;;;4.18;2.63;;;25.40;73.60;;;;;;5091117;28;20036;-67
2022/06/24 05:50:00;;;;;;;2.50;2.30;;;25.90;71.20;;;;;;5091427;28;20456;-66
2022/06/24 05:55:09;;;;;;;2.50;2.30;;;27.80;66.20;;;;;;5071279;28;20071;-66
2022/06/24 05:57:35;;;;;;;2.63;2.10;;;29.20;59.00;;;;;;5086957;28;20060;-68
2022/06/24 06:00:01;;;;;;;2.67;2.42;;;29.60;56.00;;;;;;5073156;28;20054;-66
2022/06/24 06:02:26;;;;;;;3.67;2.40;;;29.90;56.80;;;;;;5091553;28;20324;-67
2022/06/24 06:04:52;;;;;;;3.50;2.30;;;29.60;54.50;;;;;;5092409;28;20051;-66
2022/06/24 06:07:19;;;;;;;3.35;2.47;;;29.20;55.40;;;;;;5096106;28;20491;-67
2022/06/24 06:09:45;;;;;;;3.88;2.40;;;28.70;55.40;;;;;;5095898;28;20043;-67
2022/06/24 06:12:10;;;;;;;3.10;2.03;;;28.20;57.00;;;;;;5095476;28;20065;-66
2022/06/24 06:14:36;;;;;;;4.82;2.17;;;27.90;57.60;;;;;;5095876;28;20101;-68
2022/06/24 06:17:03;;;;;;;4.43;2.47;;;27.50;58.60;;;;;;5094998;28;20040;-66
2022/06/24 06:19:29;;;;;;;4.30;2.35;;;27.20;59.80;;;;;;5095658;28;20043;-67
2022/06/24 06:21:55;;;;;;;6.05;2.20;;;27.00;60.40;;;;;;5095000;28;20059;-66
2022/06/24 06:24:21;;;;;;;2.88;2.20;;;26.90;60.90;;;;;;5095145;28;20105;-68
2022/06/24 06:26:48;;;;;;;5.05;2.53;;;26.80;61.70;;;;;;5095495;28;20028;-67
2022/06/24 06:29:14;;;;;;;2.80;2.20;;;26.70;61.50;;;;;;5095104;28;20059;-67
2022/06/24 06:31:39;;;;;;;2.97;2.42;;;26.80;62.50;;;;;;5089443;28;20056;-67
2022/06/24 06:34:05;;;;;;;2.90;2.33;;;27.00;61.10;;;;;;5074716;28;20106;-66
2022/06/24 06:36:30;;;;;;;2.35;1.95;;;27.10;60.70;;;;;;5074999;28;20025;-68
2022/06/24 06:38:56;;;;;;;4.75;2.80;;;27.40;60.80;;;;;;5074506;28;20037;-67
2022/06/24 06:41:22;;;;;;;3.60;1.98;;;27.60;60.00;;;;;;5075050;28;20024;-67
2022/06/24 06:43:47;;;;;;;2.60;2.33;;;28.00;58.80;;;;;;5074955;28;20377;-67
2022/06/24 06:46:13;;;;;;;2.33;1.88;;;28.60;57.40;;;;;;5091959;28;20476;-66
2022/06/24 06:48:40;;;;;;;2.25;1.60;;;29.20;56.20;;;;;;5095237;28;20443;-67
2022/06/24 06:51:05;;;;;;;2.28;2.00;;;29.60;54.80;;;;;;5094379;28;20032;-66
2022/06/24 06:53:31;;;;;;;2.83;2.03;;;29.80;53.60;;;;;;5095074;28;20107;-67
2022/06/24 06:55:56;;;;;;;2.30;1.95;;;30.00;53.00;;;;;;5094379;28;20027;-67
2022/06/24 06:58:23;;;;;;;2.28;1.92;;;29.90;53.30;;;;;;5094602;28;20024;-67
2022/06/24 07:00:49;;;;;;;2.85;1.88;;;29.90;53.10;;;;;;5094726;28;20461;-67
2022/06/24 07:03:15;;;;;;;2.67;2.10;;;29.90;52.50;;;;;;5094435;28;20471;-67
2022/06/24 07:05:44;;;;;;;2.85;1.73;;;30.00;52.80;;;;;;5094684;28;20029;-67
2022/06/24 07:08:14;;;;;;;3.97;1.92;;;30.10;52.00;;;;;;5094252;28;20586;-67
2022/06/24 07:10:40;;;;;;;2.80;2.08;;;29.80;51.80;;;;;;5094971;28;20046;-67
2022/06/24 07:13:06;;;;;;;3.47;1.83;;;29.70;52.20;;;;;;5094321;28;20101;-67
2022/06/24 07:15:32;;;;;;;2.35;1.90;;;29.60;52.10;;;;;;5094801;28;20362;-67
2022/06/24 07:17:58;;;;;;;6.22;2.03;;;29.70;52.00;;;;;;5093254;28;20032;-68
2022/06/24 07:20:24;;;;;;;2.95;1.85;;;30.00;52.20;;;;;;5094784;28;20542;-67
2022/06/24 07:22:50;;;;;;;2.88;2.05;;;30.60;52.10;;;;;;5094579;28;20024;-67
2022/06/24 07:25:15;;;;;;;3.72;2.10;;;31.20;51.20;;;;;;5094186;28;20139;-67
2022/06/24 07:27:41;;;;;;;2.30;1.73;;;31.80;50.00;;;;;;5094585;28;20058;-67
2022/06/24 07:30:07;;;;;;;1.60;1.48;;;32.30;49.40;;;;;;5093821;28;20488;-67
2022/06/24 07:32:33;;;;;;;3.35;1.85;;;32.70;48.60;;;;;;5094407;28;20119;-67
2022/06/24 07:34:59;;;;;;;1.90;1.70;;;33.00;48.10;;;;;;5094039;28;20452;-66
2022/06/24 07:37:24;;;;;;;1.67;1.58;;;33.20;47.30;;;;;;5094418;28;20090;-67
2022/06/24 07:39:50;;;;;;;2.13;1.60;;;33.50;47.40;;;;;;5094376;28;20028;-67
2022/06/24 07:42:16;;;;;;;2.97;1.88;;;33.60;46.70;;;;;;5094631;28;20100;-67
2022/06/24 07:44:43;;;;;;;4.93;2.05;;;33.80;46.10;;;;;;5094113;28;20062;-67
2022/06/24 07:47:10;;;;;;;1.73;1.63;;;34.00;45.40;;;;;;5093232;28;20090;-66
2022/06/24 07:49:36;;;;;;;2.25;1.65;;;33.90;45.50;;;;;;5094114;28;20036;-66
2022/06/24 07:52:01;;;;;;;3.05;1.70;;;34.00;45.20;;;;;;5093640;28;20397;-67
2022/06/24 07:54:27;;;;;;;2.63;1.67;;;34.00;45.30;;;;;;5090751;28;20240;-68
2022/06/24 07:56:59;;;;;;;2.22;1.67;;;34.00;45.30;;;;;;5093489;28;20028;-67
2022/06/24 07:59:26;;;;;;;3.58;1.95;;;33.90;44.70;;;;;;5093948;28;20035;-67
2022/06/24 08:01:54;;;;;;;1.90;1.70;;;33.40;44.70;;;;;;5093644;28;20031;-67
2022/06/24 08:04:21;;;;;;;2.25;1.80;;;33.00;45.10;;;;;;5093886;28;20024;-67
2022/06/24 08:06:49;;;;;;;1.83;1.70;;;32.60;45.10;;;;;;5093560;28;20030;-67
2022/06/24 08:09:16;;;;;;;2.42;1.33;;;32.10;44.70;;;;;;5093222;28;20440;-67
2022/06/24 08:11:42;;;;;;;1.63;1.25;;;31.50;45.10;;;;;;5093414;28;20449;-66
2022/06/24 08:14:08;;;;;;;1.65;1.48;;;31.20;46.50;;;;;;5093359;28;20059;-67
2022/06/24 08:16:34;;;;;;;2.30;1.60;;;30.90;47.00;;;;;;5093705;28;20024;-67
2022/06/24 08:19:00;;;;;;;1.95;1.83;;;30.70;48.10;;;;;;5093121;28;20081;-67
2022/06/24 08:21:26;;;;;;;1.80;1.70;;;30.50;49.00;;;;;;5093673;28;20050;-67
2022/06/24 08:23:52;;;;;;;1.75;1.63;;;30.30;49.30;;;;;;5093263;28;20024;-66
2022/06/24 08:26:17;;;;;;;2.13;1.85;;;30.10;50.20;;;;;;5093768;28;20027;-67
2022/06/24 08:28:44;;;;;;;2.20;1.73;;;29.80;50.70;;;;;;5092394;28;20055;-67
2022/06/24 08:31:10;;;;;;;2.88;2.08;;;29.60;51.50;;;;;;5091149;28;20515;-67
2022/06/24 08:33:36;;;;;;;2.50;2.10;;;29.30;52.30;;;;;;5073037;28;20491;-68
2022/06/24 08:36:02;;;;;;;2.80;2.10;;;29.10;52.80;;;;;;5072723;28;20037;-66
2022/06/24 08:38:28;;;;;;;3.03;1.92;;;28.90;53.40;;;;;;5073175;28;20082;-67
2022/06/24 08:40:54;;;;;;;2.13;1.92;;;28.60;54.30;;;;;;5054497;28;20021;-67
2022/06/24 08:43:23;;;;;;;2.25;2.03;;;28.50;54.80;;;;;;5072601;28;20040;-68
2022/06/24 08:45:49;;;;;;;3.35;1.70;;;28.40;55.80;;;;;;5072589;28;20102;-67
2022/06/24 08:48:15;;;;;;;3.78;2.03;;;28.30;55.40;;;;;;5072524;28;20039;-67
2022/06/24 08:50:41;;;;;;;2.78;1.83;;;28.10;54.80;;;;;;5072772;28;20107;-67
2022/06/24 08:53:09;;;;;;;1.90;1.60;;;28.00;55.40;;;;;;5072282;28;20113;-67
2022/06/24 08:55:40;;;;;;;1.88;1.60;;;27.90;54.20;;;;;;5072655;28;20035;-67
2022/06/24 08:58:12;;;;;;;1.50;1.40;;;27.80;54.00;;;;;;5072198;28;20348;-67
2022/06/24 09:00:39;;;;;;;2.67;1.48;;;27.70;52.80;;;;;;5072551;28;20453;-67
2022/06/24 09:03:06;;;;;;;1.73;1.63;;;27.60;51.80;;;;;;5072344;28;20106;-66
2022/06/24 09:05:33;;;;;;;1.65;1.48;;;27.50;51.00;;;;;;5072790;28;20025;-67
2022/06/24 09:08:10;;;;;;;5.15;1.73;;;27.40;51.00;;;;;;5072278;28;20032;-66
2022/06/24 09:10:38;;;;;;;1.30;1.20;;;27.40;51.10;;;;;;5072543;28;20126;-67
2022/06/24 09:13:04;;;;;;;1.80;1.55;;;27.40;51.50;;;;;;5071882;28;20029;-67
2022/06/24 09:15:31;;;;;;;2.28;1.67;;;27.30;52.00;;;;;;5072495;28;20017;-67
2022/06/24 09:17:57;;;;;;;1.58;1.25;;;27.30;52.30;;;;;;5071737;28;20060;-67
2022/06/24 09:20:25;;;;;;;1.58;1.48;;;27.20;52.80;;;;;;5072152;28;20106;-66
2022/06/24 09:23:02;;;;;;;2.97;1.50;;;27.20;53.20;;;;;;5072199;28;20037;-66
2022/06/24 09:25:39;;;;;;;1.90;1.40;;;27.20;53.50;;;;;;5072201;28;20068;-67
2022/06/24 09:28:06;;;;;;;1.40;1.30;;;27.30;53.60;;;;;;5071717;28;20029;-66
2022/06/24 09:30:38;;;;;;;1.90;1.65;;;27.30;53.50;;;;;;5072264;28;20469;-66
2022/06/24 09:33:04;;;;;;;2.20;1.60;;;27.30;53.80;;;;;;5071685;28;20381;-66
2022/06/24 09:35:34;;;;;;;1.63;1.50;;;27.30;53.70;;;;;;5072151;28;20028;-67
2022/06/24 09:38:00;;;;;;;4.53;1.50;;;27.30;53.50;;;;;;5088542;28;20063;-67
2022/06/24 09:40:31;;;;;;;1.70;1.50;;;27.30;53.60;;;;;;5091168;28;20461;-67
2022/06/24 09:43:00;;;;;;;2.25;1.60;;;27.40;53.30;;;;;;5091512;28;20024;-66
2022/06/24 09:45:49;;;;;;;2.13;1.83;;;27.40;53.30;;;;;;5090849;28;20392;-67
2022/06/24 09:48:37;;;;;;;1.90;1.70;;;27.40;53.90;;;;;;5090607;28;20721;-66
2022/06/24 09:51:06;;;;;;;2.05;1.55;;;27.50;54.20;;;;;;5088943;28;20027;-67
2022/06/24 09:53:37;;;;;;;2.20;1.70;;;27.50;54.10;;;;;;5083475;28;20028;-67
2022/06/24 09:56:04;;;;;;;1.60;1.50;;;27.50;54.20;;;;;;5076661;28;20103;-66
2022/06/24 09:58:30;;;;;;;2.40;1.70;;;27.50;54.20;;;;;;5092135;28;20162;-66
2022/06/24 10:00:55;;;;;;;1.80;1.50;;;27.50;54.10;;;;;;5081497;28;20062;-68
2022/06/24 10:03:21;;;;;;;1.55;1.45;;;27.50;54.20;;;;;;5073522;28;20047;-67
2022/06/24 10:05:48;;;;;;;1.50;1.40;;;27.50;54.20;;;;;;5092044;28;20520;-66
2022/06/24 10:08:19;;;;;;;1.98;1.50;;;27.50;53.70;;;;;;5091197;28;20020;-67
2022/06/24 10:10:46;;;;;;;;;;;27.50;54.00;;;;;;5071704;28;20177;-67
2022/06/24 10:13:32;;;;;;;2.75;1.45;;;27.40;53.90;;;;;;5071174;28;19958;-67
2022/06/24 10:16:01;;;;;;;2.55;1.98;;;27.40;54.20;;;;;;5071182;28;20029;-67
2022/06/24 10:18:46;;;;;;;1.60;1.50;;;27.40;53.80;;;;;;5071522;28;20419;-67
2022/06/24 10:21:12;;;;;;;1.48;1.38;;;27.40;54.00;;;;;;5070886;28;20024;-67
2022/06/24 10:23:41;;;;;;;2.47;1.50;;;27.40;53.50;;;;;;5071339;28;20041;-67
2022/06/24 10:26:17;;;;;;;1.67;1.58;;;27.40;53.00;;;;;;5070969;28;20036;-67
2022/06/24 10:29:05;;;;;;;1.67;1.58;;;27.40;52.80;;;;;;5071630;28;20027;-68
2022/06/24 10:31:49;;;;;;;1.92;1.58;;;27.40;52.80;;;;;;5057924;28;20056;-67
2022/06/24 10:34:30;;;;;;;1.55;1.33;;;27.50;52.20;;;;;;5070539;28;20024;-67
2022/06/24 10:37:08;;;;;;;1.63;1.48;;;27.60;51.90;;;;;;5069570;28;20551;-66
2022/06/24 10:39:44;;;;;;;1.77;1.45;;;27.70;52.30;;;;;;5070537;28;20036;-67
2022/06/24 10:42:11;;;;;;;2.03;1.45;;;27.70;51.50;;;;;;5070111;28;20029;-67
2022/06/24 10:44:38;;;;;;;3.15;1.60;;;27.80;51.50;;;;;;5070523;28;20052;-67
2022/06/24 10:47:12;;;;;;;1.70;1.60;;;27.80;51.70;;;;;;5069732;28;20057;-66
2022/06/24 10:49:56;;;;;;;1.88;1.48;;;27.80;51.40;;;;;;5070668;28;20155;-67
2022/06/24 10:52:55;;;;;;;1.90;1.52;;;27.90;50.90;;;;;;5072690;28;20028;-67
2022/06/24 10:55:21;;;;;;;1.80;1.35;;;28.00;50.30;;;;;;5076676;28;20024;-67
2022/06/24 10:58:08;;;;;;;1.60;1.50;;;28.00;51.30;;;;;;5074846;28;20025;-67
2022/06/24 11:00:37;;;;;;;1.60;1.50;;;28.00;50.90;;;;;;5074903;28;20039;-68
2022/06/24 11:03:03;;;;;;;2.05;1.67;;;28.10;50.90;;;;;;5073973;28;20036;-67
2022/06/24 11:05:37;;;;;;;1.50;1.40;;;28.10;51.10;;;;;;5074497;28;20101;-67
2022/06/24 11:08:14;;;;;;;1.77;1.50;;;28.10;51.60;;;;;;5074192;28;20074;-66
2022/06/24 11:10:41;;;;;;;2.97;1.92;;;28.10;52.70;;;;;;5074661;28;20115;-67
2022/06/24 11:13:07;;;;;;;2.05;1.85;;;28.20;53.00;;;;;;5073882;28;20063;-66
2022/06/24 11:15:36;;;;;;;2.00;1.85;;;28.20;53.00;;;;;;5074348;28;20036;-67
2022/06/24 11:18:26;;;;;;;2.50;1.80;;;28.20;53.40;;;;;;5073934;28;20029;-67
2022/06/24 11:20:55;;;;;;;2.55;2.00;;;28.20;53.80;;;;;;5074161;28;20469;-67
2022/06/24 11:23:24;;;;;;;1.83;1.50;;;28.20;53.20;;;;;;5076061;28;20025;-68
2022/06/24 11:25:56;;;;;;;1.33;1.23;;;28.30;53.30;;;;;;5094174;28;20047;-68
2022/06/24 11:28:31;;;;;;;2.03;1.50;;;28.30;53.60;;;;;;5094201;28;20481;-67
2022/06/24 11:31:26;;;;;;;1.95;1.75;;;28.40;53.70;;;;;;5094224;28;20133;-68
2022/06/24 11:34:09;;;;;;;1.90;1.67;;;28.40;53.40;;;;;;5094549;28;20169;-67
2022/06/24 11:36:37;;;;;;;2.40;1.80;;;28.40;52.60;;;;;;5076346;28;20032;-67
2022/06/24 11:39:05;;;;;;;2.55;1.80;;;28.40;52.60;;;;;;5094113;28;20031;-67
2022/06/24 11:41:39;;;;;;;1.95;1.70;;;28.40;52.30;;;;;;5094267;28;20468;-67
2022/06/24 11:44:05;;;;;;;1.38;1.27;;;28.40;51.30;;;;;;5093724;28;20067;-66
2022/06/24 11:46:34;;;;;;;3.85;2.15;;;28.50;51.10;;;;;;5090588;28;20084;-67
2022/06/24 11:49:13;;;;;;;1.92;1.27;;;28.50;51.20;;;;;;5082903;28;20190;-66
2022/06/24 11:51:41;;;;;;;2.58;1.50;;;28.50;51.40;;;;;;5087788;28;20024;-68
2022/06/24 11:54:08;;;;;;;1.60;1.50;;;28.50;51.70;;;;;;5093745;28;20101;-66
2022/06/24 11:56:38;;;;;;;2.63;1.50;;;28.50;52.10;;;;;;5090179;28;20122;-67
2022/06/24 11:59:05;;;;;;;1.90;1.70;;;28.40;52.70;;;;;;5092818;28;20392;-67
2022/06/24 12:01:33;;;;;;;1.63;1.52;;;28.30;53.00;;;;;;5091174;28;20016;-66
2022/06/24 12:04:07;;;;;;;2.78;1.73;;;28.20;53.60;;;;;;5090184;28;20016;-68
2022/06/24 12:06:33;;;;;;;2.92;1.77;;;28.10;53.60;;;;;;5093597;28;20153;-67
2022/06/24 12:08:59;;;;;;;4.75;1.52;;;28.10;53.90;;;;;;5093281;28;20464;-67
2022/06/24 12:11:25;;;;;;;1.58;1.48;;;28.00;53.60;;;;;;5092482;28;20445;-67
2022/06/24 12:13:59;;;;;;;3.03;1.90;;;28.00;53.40;;;;;;5093005;28;20024;-67
2022/06/24 12:16:26;;;;;;;2.10;1.75;;;27.90;53.70;;;;;;5091104;28;20035;-68
2022/06/24 12:18:51;;;;;;;2.30;1.90;;;27.80;54.20;;;;;;5093104;28;20035;-67
2022/06/24 12:21:30;;;;;;;1.60;1.50;;;27.80;54.10;;;;;;5092503;28;20016;-67
2022/06/24 12:23:55;;;;;;;2.20;1.52;;;27.70;53.80;;;;;;5093559;28;20024;-67
2022/06/24 12:26:24;;;;;;;1.85;1.65;;;27.60;53.80;;;;;;5092983;28;20123;-67
2022/06/24 12:29:04;;;;;;;2.13;1.67;;;27.60;53.90;;;;;;5093264;28;20035;-67
2022/06/24 12:31:31;;;;;;;2.88;1.88;;;27.60;54.10;;;;;;5092947;28;20032;-68
2022/06/24 12:33:58;;;;;;;3.50;2.40;;;27.60;54.50;;;;;;5093093;28;20043;-66
2022/06/24 12:36:54;;;;;;;1.70;1.60;;;27.60;54.40;;;;;;5092770;28;20035;-66
2022/06/24 12:39:29;;;;;;;1.88;1.70;;;27.60;54.80;;;;;;5090953;28;20218;-67
2022/06/24 12:41:55;;;;;;;2.50;1.55;;;27.60;54.70;;;;;;5092704;28;20432;-66
2022/06/24 12:44:21;;;;;;;3.50;1.52;;;27.60;55.00;;;;;;5092667;28;20122;-66
2022/06/24 12:52:38;;;;;;;2.13;1.55;;;27.50;55.30;;;;;;5092618;28;20035;-66
2022/06/24 12:55:06;;;;;;;3.47;1.80;;;27.50;55.00;;;;;;5084021;28;20028;-66
2022/06/24 12:57:31;;;;;;;1.77;1.65;;;27.50;55.50;;;;;;5071800;28;20388;-66
2022/06/24 12:59:57;;;;;;;2.25;1.70;;;27.60;55.40;;;;;;5072565;28;20094;-66
2022/06/24 13:02:22;;;;;;;1.85;1.70;;;27.60;55.20;;;;;;5072076;28;20051;-66
2022/06/24 13:04:48;;;;;;;2.22;1.50;;;27.60;55.60;;;;;;5072357;28;20028;-67
2022/06/24 13:07:14;;;;;;;1.88;1.60;;;27.60;55.30;;;;;;5072304;28;20359;-66
2022/06/24 13:09:39;;;;;;;1.42;1.27;;;27.60;54.70;;;;;;5072402;28;20025;-67